sensor_id;sensor_type;location;lat;lon;timestamp;P1;durP1;ratioP1;P2;durP2;ratioP2
75758;SDS011;64371;47.566;19.086;2023-06-14T00:01:32;4.85;;;3.40;;
75758;SDS011;64371;47.566;19.086;2023-06-14T00:04:36;6.47;;;2.88;;
75758;SDS011;64371;47.566;19.086;2023-06-14T00:07:40;5.65;;;2.92;;
75758;SDS011;64371;47.566;19.086;2023-06-14T00:10:46;5.50;;;3.03;;
75758;SDS011;64371;47.566;19.086;2023-06-14T00:13:48;6.28;;;3.15;;
75758;SDS011;64371;47.566;19.086;2023-06-14T00:16:51;5.00;;;3.42;;
75758;SDS011;64371;47.566;19.086;2023-06-14T00:19:54;5.38;;;3.30;;
75758;SDS011;64371;47.566;19.086;2023-06-14T00:23:01;5.28;;;3.05;;
75758;SDS011;64371;47.566;19.086;2023-06-14T00:26:03;7.37;;;3.10;;
75758;SDS011;64371;47.566;19.086;2023-06-14T00:29:06;6.22;;;3.85;;
75758;SDS011;64371;47.566;19.086;2023-06-14T00:32:09;4.60;;;3.40;;
75758;SDS011;64371;47.566;19.086;2023-06-14T00:35:11;6.05;;;3.30;;
75758;SDS011;64371;47.566;19.086;2023-06-14T00:38:14;6.63;;;3.60;;
75758;SDS011;64371;47.566;19.086;2023-06-14T00:41:19;6.30;;;3.40;;
75758;SDS011;64371;47.566;19.086;2023-06-14T00:44:21;4.82;;;3.28;;
75758;SDS011;64371;47.566;19.086;2023-06-14T00:47:24;5.45;;;3.50;;
75758;SDS011;64371;47.566;19.086;2023-06-14T00:50:27;4.60;;;3.30;;
75758;SDS011;64371;47.566;19.086;2023-06-14T00:53:30;5.57;;;3.50;;
75758;SDS011;64371;47.566;19.086;2023-06-14T00:56:36;5.63;;;3.37;;
75758;SDS011;64371;47.566;19.086;2023-06-14T00:59:43;7.35;;;3.70;;
75758;SDS011;64371;47.566;19.086;2023-06-14T01:02:47;6.05;;;3.53;;
75758;SDS011;64371;47.566;19.086;2023-06-14T01:05:53;7.85;;;4.38;;
75758;SDS011;64371;47.566;19.086;2023-06-14T01:09:13;5.45;;;3.78;;
75758;SDS011;64371;47.566;19.086;2023-06-14T01:16:00;6.32;;;3.90;;
75758;SDS011;64371;47.566;19.086;2023-06-14T01:19:07;7.78;;;4.00;;
75758;SDS011;64371;47.566;19.086;2023-06-14T01:22:15;7.50;;;4.20;;
75758;SDS011;64371;47.566;19.086;2023-06-14T01:25:18;6.55;;;4.13;;
75758;SDS011;64371;47.566;19.086;2023-06-14T01:28:23;5.57;;;3.93;;
75758;SDS011;64371;47.566;19.086;2023-06-14T01:31:27;7.43;;;4.32;;
75758;SDS011;64371;47.566;19.086;2023-06-14T01:34:31;6.90;;;4.57;;
75758;SDS011;64371;47.566;19.086;2023-06-14T01:37:34;6.25;;;4.25;;
75758;SDS011;64371;47.566;19.086;2023-06-14T01:40:37;8.30;;;4.15;;
75758;SDS011;64371;47.566;19.086;2023-06-14T01:43:41;8.17;;;4.90;;
75758;SDS011;64371;47.566;19.086;2023-06-14T01:46:44;7.38;;;4.38;;
75758;SDS011;64371;47.566;19.086;2023-06-14T01:49:47;8.77;;;4.72;;
75758;SDS011;64371;47.566;19.086;2023-06-14T01:52:49;8.48;;;4.65;;
75758;SDS011;64371;47.566;19.086;2023-06-14T01:55:52;8.60;;;4.70;;
75758;SDS011;64371;47.566;19.086;2023-06-14T01:58:56;8.83;;;4.70;;
75758;SDS011;64371;47.566;19.086;2023-06-14T02:01:59;8.73;;;4.72;;
75758;SDS011;64371;47.566;19.086;2023-06-14T02:05:02;9.88;;;5.05;;
75758;SDS011;64371;47.566;19.086;2023-06-14T02:08:06;8.52;;;4.90;;
75758;SDS011;64371;47.566;19.086;2023-06-14T02:11:09;9.80;;;5.50;;
75758;SDS011;64371;47.566;19.086;2023-06-14T02:14:12;8.83;;;5.23;;
75758;SDS011;64371;47.566;19.086;2023-06-14T02:17:14;8.98;;;5.15;;
75758;SDS011;64371;47.566;19.086;2023-06-14T02:20:17;10.65;;;5.40;;
75758;SDS011;64371;47.566;19.086;2023-06-14T02:23:20;9.52;;;5.10;;
75758;SDS011;64371;47.566;19.086;2023-06-14T02:26:23;11.18;;;5.25;;
75758;SDS011;64371;47.566;19.086;2023-06-14T02:29:25;9.67;;;5.13;;
75758;SDS011;64371;47.566;19.086;2023-06-14T02:32:27;9.32;;;5.78;;
75758;SDS011;64371;47.566;19.086;2023-06-14T02:35:30;10.07;;;5.47;;
75758;SDS011;64371;47.566;19.086;2023-06-14T02:38:32;7.93;;;5.03;;
75758;SDS011;64371;47.566;19.086;2023-06-14T02:41:35;11.10;;;5.68;;
75758;SDS011;64371;47.566;19.086;2023-06-14T02:44:38;8.47;;;4.77;;
75758;SDS011;64371;47.566;19.086;2023-06-14T02:47:41;9.32;;;5.40;;
75758;SDS011;64371;47.566;19.086;2023-06-14T02:50:47;12.07;;;5.60;;
75758;SDS011;64371;47.566;19.086;2023-06-14T02:53:49;10.40;;;5.93;;
75758;SDS011;64371;47.566;19.086;2023-06-14T02:56:52;9.70;;;5.47;;
75758;SDS011;64371;47.566;19.086;2023-06-14T02:59:55;10.20;;;5.47;;
75758;SDS011;64371;47.566;19.086;2023-06-14T03:02:57;9.55;;;5.78;;
75758;SDS011;64371;47.566;19.086;2023-06-14T03:05:59;10.88;;;5.43;;
75758;SDS011;64371;47.566;19.086;2023-06-14T03:09:09;9.73;;;5.63;;
75758;SDS011;64371;47.566;19.086;2023-06-14T03:12:14;9.80;;;5.47;;
75758;SDS011;64371;47.566;19.086;2023-06-14T03:15:17;10.10;;;5.37;;
75758;SDS011;64371;47.566;19.086;2023-06-14T03:18:22;10.75;;;5.50;;
75758;SDS011;64371;47.566;19.086;2023-06-14T03:21:29;10.98;;;6.03;;
75758;SDS011;64371;47.566;19.086;2023-06-14T03:24:34;13.80;;;6.00;;
75758;SDS011;64371;47.566;19.086;2023-06-14T03:27:44;11.60;;;6.20;;
75758;SDS011;64371;47.566;19.086;2023-06-14T03:30:47;12.17;;;5.80;;
75758;SDS011;64371;47.566;19.086;2023-06-14T03:33:49;10.93;;;6.10;;
75758;SDS011;64371;47.566;19.086;2023-06-14T03:36:54;15.13;;;6.70;;
75758;SDS011;64371;47.566;19.086;2023-06-14T03:39:57;12.73;;;6.43;;
75758;SDS011;64371;47.566;19.086;2023-06-14T03:43:06;12.25;;;6.15;;
75758;SDS011;64371;47.566;19.086;2023-06-14T03:46:08;11.00;;;6.03;;
75758;SDS011;64371;47.566;19.086;2023-06-14T03:49:12;14.02;;;6.38;;
75758;SDS011;64371;47.566;19.086;2023-06-14T03:52:14;12.05;;;6.28;;
75758;SDS011;64371;47.566;19.086;2023-06-14T03:55:21;14.80;;;6.72;;
75758;SDS011;64371;47.566;19.086;2023-06-14T03:58:44;11.63;;;5.60;;
75758;SDS011;64371;47.566;19.086;2023-06-14T04:01:47;10.97;;;6.10;;
75758;SDS011;64371;47.566;19.086;2023-06-14T04:04:51;14.35;;;6.68;;
75758;SDS011;64371;47.566;19.086;2023-06-14T04:07:57;11.98;;;6.40;;
75758;SDS011;64371;47.566;19.086;2023-06-14T04:11:01;12.13;;;5.72;;
75758;SDS011;64371;47.566;19.086;2023-06-14T04:14:05;12.13;;;5.80;;
75758;SDS011;64371;47.566;19.086;2023-06-14T04:17:07;10.80;;;6.00;;
75758;SDS011;64371;47.566;19.086;2023-06-14T04:20:14;10.77;;;5.97;;
75758;SDS011;64371;47.566;19.086;2023-06-14T04:23:17;11.63;;;6.20;;
75758;SDS011;64371;47.566;19.086;2023-06-14T04:26:23;14.85;;;6.65;;
75758;SDS011;64371;47.566;19.086;2023-06-14T04:29:32;13.10;;;6.88;;
75758;SDS011;64371;47.566;19.086;2023-06-14T04:32:39;12.27;;;6.43;;
75758;SDS011;64371;47.566;19.086;2023-06-14T04:35:44;13.68;;;6.70;;
75758;SDS011;64371;47.566;19.086;2023-06-14T04:38:50;9.95;;;5.60;;
75758;SDS011;64371;47.566;19.086;2023-06-14T04:42:01;10.38;;;6.47;;
75758;SDS011;64371;47.566;19.086;2023-06-14T04:45:08;13.57;;;6.40;;
75758;SDS011;64371;47.566;19.086;2023-06-14T04:48:13;10.87;;;6.30;;
75758;SDS011;64371;47.566;19.086;2023-06-14T04:51:16;12.23;;;6.32;;
75758;SDS011;64371;47.566;19.086;2023-06-14T04:54:18;11.68;;;6.18;;
75758;SDS011;64371;47.566;19.086;2023-06-14T04:57:22;8.35;;;5.13;;
75758;SDS011;64371;47.566;19.086;2023-06-14T05:00:27;14.43;;;5.68;;
75758;SDS011;64371;47.566;19.086;2023-06-14T05:03:29;10.17;;;5.60;;
75758;SDS011;64371;47.566;19.086;2023-06-14T05:06:33;10.35;;;5.85;;
75758;SDS011;64371;47.566;19.086;2023-06-14T05:09:35;9.93;;;5.60;;
75758;SDS011;64371;47.566;19.086;2023-06-14T05:12:38;10.55;;;6.03;;
75758;SDS011;64371;47.566;19.086;2023-06-14T05:15:43;9.10;;;5.70;;
75758;SDS011;64371;47.566;19.086;2023-06-14T05:18:45;10.73;;;5.60;;
75758;SDS011;64371;47.566;19.086;2023-06-14T05:21:49;8.43;;;5.60;;
75758;SDS011;64371;47.566;19.086;2023-06-14T05:24:55;10.48;;;5.70;;
75758;SDS011;64371;47.566;19.086;2023-06-14T05:27:58;9.45;;;5.70;;
75758;SDS011;64371;47.566;19.086;2023-06-14T05:31:01;9.10;;;5.63;;
75758;SDS011;64371;47.566;19.086;2023-06-14T05:34:04;11.40;;;6.40;;
75758;SDS011;64371;47.566;19.086;2023-06-14T05:37:06;10.40;;;6.07;;
75758;SDS011;64371;47.566;19.086;2023-06-14T05:40:09;7.97;;;4.38;;
75758;SDS011;64371;47.566;19.086;2023-06-14T05:43:12;9.50;;;5.15;;
75758;SDS011;64371;47.566;19.086;2023-06-14T05:46:14;8.63;;;5.03;;
75758;SDS011;64371;47.566;19.086;2023-06-14T05:49:17;10.43;;;5.50;;
75758;SDS011;64371;47.566;19.086;2023-06-14T05:52:19;9.23;;;5.82;;
75758;SDS011;64371;47.566;19.086;2023-06-14T05:55:22;9.45;;;5.28;;
75758;SDS011;64371;47.566;19.086;2023-06-14T05:58:25;8.50;;;5.20;;
75758;SDS011;64371;47.566;19.086;2023-06-14T06:01:27;9.85;;;5.32;;
75758;SDS011;64371;47.566;19.086;2023-06-14T06:04:29;10.47;;;5.63;;
75758;SDS011;64371;47.566;19.086;2023-06-14T06:07:33;12.32;;;6.40;;
75758;SDS011;64371;47.566;19.086;2023-06-14T06:10:38;13.75;;;6.28;;
75758;SDS011;64371;47.566;19.086;2023-06-14T06:13:41;9.75;;;4.18;;
75758;SDS011;64371;47.566;19.086;2023-06-14T06:16:43;8.80;;;4.72;;
75758;SDS011;64371;47.566;19.086;2023-06-14T06:19:46;10.77;;;5.93;;
75758;SDS011;64371;47.566;19.086;2023-06-14T06:22:48;8.98;;;5.95;;
75758;SDS011;64371;47.566;19.086;2023-06-14T06:25:50;10.70;;;5.80;;
75758;SDS011;64371;47.566;19.086;2023-06-14T06:28:53;7.20;;;4.55;;
75758;SDS011;64371;47.566;19.086;2023-06-14T06:31:56;9.57;;;5.40;;
75758;SDS011;64371;47.566;19.086;2023-06-14T06:34:58;9.30;;;4.67;;
75758;SDS011;64371;47.566;19.086;2023-06-14T06:38:02;8.93;;;5.18;;
75758;SDS011;64371;47.566;19.086;2023-06-14T06:41:04;8.00;;;5.20;;
75758;SDS011;64371;47.566;19.086;2023-06-14T06:44:07;8.60;;;4.88;;
75758;SDS011;64371;47.566;19.086;2023-06-14T06:47:09;9.65;;;5.57;;
75758;SDS011;64371;47.566;19.086;2023-06-14T06:50:13;8.77;;;5.33;;
75758;SDS011;64371;47.566;19.086;2023-06-14T06:53:15;9.80;;;5.00;;
75758;SDS011;64371;47.566;19.086;2023-06-14T06:56:27;7.70;;;4.72;;
75758;SDS011;64371;47.566;19.086;2023-06-14T06:59:30;6.10;;;3.70;;
75758;SDS011;64371;47.566;19.086;2023-06-14T07:02:33;9.80;;;5.18;;
75758;SDS011;64371;47.566;19.086;2023-06-14T07:05:35;8.13;;;4.90;;
75758;SDS011;64371;47.566;19.086;2023-06-14T07:08:38;8.73;;;5.10;;
75758;SDS011;64371;47.566;19.086;2023-06-14T07:11:40;9.05;;;4.95;;
75758;SDS011;64371;47.566;19.086;2023-06-14T07:14:43;10.02;;;4.75;;
75758;SDS011;64371;47.566;19.086;2023-06-14T07:17:46;7.50;;;4.78;;
75758;SDS011;64371;47.566;19.086;2023-06-14T07:20:48;13.90;;;7.27;;
75758;SDS011;64371;47.566;19.086;2023-06-14T07:23:53;25.35;;;8.57;;
75758;SDS011;64371;47.566;19.086;2023-06-14T07:26:56;14.38;;;6.75;;
75758;SDS011;64371;47.566;19.086;2023-06-14T07:30:12;10.38;;;5.43;;
75758;SDS011;64371;47.566;19.086;2023-06-14T07:33:15;8.80;;;5.95;;
75758;SDS011;64371;47.566;19.086;2023-06-14T07:36:17;11.10;;;5.20;;
75758;SDS011;64371;47.566;19.086;2023-06-14T07:39:20;8.68;;;5.32;;
75758;SDS011;64371;47.566;19.086;2023-06-14T07:42:22;8.98;;;5.97;;
75758;SDS011;64371;47.566;19.086;2023-06-14T07:45:25;25.10;;;10.00;;
75758;SDS011;64371;47.566;19.086;2023-06-14T07:48:29;9.40;;;5.00;;
75758;SDS011;64371;47.566;19.086;2023-06-14T07:51:32;12.93;;;4.77;;
75758;SDS011;64371;47.566;19.086;2023-06-14T07:54:34;8.90;;;5.40;;
75758;SDS011;64371;47.566;19.086;2023-06-14T07:57:37;7.82;;;4.57;;
75758;SDS011;64371;47.566;19.086;2023-06-14T08:00:42;6.90;;;4.65;;
75758;SDS011;64371;47.566;19.086;2023-06-14T08:03:45;7.45;;;4.70;;
75758;SDS011;64371;47.566;19.086;2023-06-14T08:06:47;9.70;;;5.00;;
75758;SDS011;64371;47.566;19.086;2023-06-14T08:09:56;9.85;;;4.68;;
75758;SDS011;64371;47.566;19.086;2023-06-14T08:13:04;10.32;;;5.85;;
75758;SDS011;64371;47.566;19.086;2023-06-14T08:16:06;8.68;;;5.32;;
75758;SDS011;64371;47.566;19.086;2023-06-14T08:19:09;7.85;;;5.00;;
75758;SDS011;64371;47.566;19.086;2023-06-14T08:22:12;7.03;;;4.60;;
75758;SDS011;64371;47.566;19.086;2023-06-14T08:25:14;6.25;;;3.28;;
75758;SDS011;64371;47.566;19.086;2023-06-14T08:28:18;8.10;;;4.07;;
75758;SDS011;64371;47.566;19.086;2023-06-14T08:31:20;10.23;;;4.10;;
75758;SDS011;64371;47.566;19.086;2023-06-14T08:34:23;8.50;;;4.65;;
75758;SDS011;64371;47.566;19.086;2023-06-14T08:37:25;8.23;;;5.17;;
75758;SDS011;64371;47.566;19.086;2023-06-14T08:40:29;8.15;;;5.10;;
75758;SDS011;64371;47.566;19.086;2023-06-14T08:43:32;7.43;;;4.18;;
75758;SDS011;64371;47.566;19.086;2023-06-14T08:46:36;9.57;;;4.53;;
75758;SDS011;64371;47.566;19.086;2023-06-14T08:49:39;7.72;;;4.43;;
75758;SDS011;64371;47.566;19.086;2023-06-14T08:52:48;7.83;;;5.00;;
75758;SDS011;64371;47.566;19.086;2023-06-14T08:55:55;7.72;;;4.78;;
75758;SDS011;64371;47.566;19.086;2023-06-14T08:59:03;7.95;;;5.00;;
75758;SDS011;64371;47.566;19.086;2023-06-14T09:02:06;10.00;;;4.82;;
75758;SDS011;64371;47.566;19.086;2023-06-14T09:05:14;7.85;;;4.78;;
75758;SDS011;64371;47.566;19.086;2023-06-14T09:08:20;7.13;;;5.00;;
75758;SDS011;64371;47.566;19.086;2023-06-14T09:11:25;8.32;;;3.83;;
75758;SDS011;64371;47.566;19.086;2023-06-14T09:14:28;10.32;;;4.70;;
75758;SDS011;64371;47.566;19.086;2023-06-14T09:17:36;7.78;;;4.65;;
75758;SDS011;64371;47.566;19.086;2023-06-14T09:20:40;7.72;;;4.22;;
75758;SDS011;64371;47.566;19.086;2023-06-14T09:23:44;8.27;;;4.70;;
75758;SDS011;64371;47.566;19.086;2023-06-14T09:26:48;7.82;;;4.68;;
75758;SDS011;64371;47.566;19.086;2023-06-14T09:29:53;7.70;;;4.40;;
75758;SDS011;64371;47.566;19.086;2023-06-14T09:32:55;6.68;;;4.25;;
75758;SDS011;64371;47.566;19.086;2023-06-14T09:36:03;5.10;;;3.70;;
75758;SDS011;64371;47.566;19.086;2023-06-14T09:39:12;6.07;;;3.97;;
75758;SDS011;64371;47.566;19.086;2023-06-14T09:42:19;5.78;;;3.70;;
75758;SDS011;64371;47.566;19.086;2023-06-14T09:45:22;7.60;;;4.25;;
75758;SDS011;64371;47.566;19.086;2023-06-14T09:48:26;6.20;;;3.72;;
75758;SDS011;64371;47.566;19.086;2023-06-14T09:51:33;6.22;;;4.40;;
75758;SDS011;64371;47.566;19.086;2023-06-14T09:54:40;10.73;;;3.97;;
75758;SDS011;64371;47.566;19.086;2023-06-14T09:57:50;9.65;;;4.15;;
75758;SDS011;64371;47.566;19.086;2023-06-14T10:00:54;9.13;;;4.20;;
75758;SDS011;64371;47.566;19.086;2023-06-14T10:04:02;5.80;;;3.90;;
75758;SDS011;64371;47.566;19.086;2023-06-14T10:07:14;4.60;;;3.03;;
75758;SDS011;64371;47.566;19.086;2023-06-14T10:10:22;4.17;;;3.20;;
75758;SDS011;64371;47.566;19.086;2023-06-14T10:13:25;6.05;;;3.58;;
75758;SDS011;64371;47.566;19.086;2023-06-14T10:16:37;4.43;;;3.42;;
75758;SDS011;64371;47.566;19.086;2023-06-14T10:19:48;4.80;;;3.35;;
75758;SDS011;64371;47.566;19.086;2023-06-14T10:22:58;8.23;;;3.90;;
75758;SDS011;64371;47.566;19.086;2023-06-14T10:26:08;5.33;;;3.37;;
75758;SDS011;64371;47.566;19.086;2023-06-14T10:29:12;8.77;;;3.58;;
75758;SDS011;64371;47.566;19.086;2023-06-14T10:32:36;5.28;;;3.00;;
75758;SDS011;64371;47.566;19.086;2023-06-14T10:36:23;6.68;;;3.40;;
75758;SDS011;64371;47.566;19.086;2023-06-14T10:39:51;7.00;;;3.25;;
75758;SDS011;64371;47.566;19.086;2023-06-14T10:42:55;6.47;;;3.17;;
75758;SDS011;64371;47.566;19.086;2023-06-14T10:46:17;7.07;;;3.42;;
75758;SDS011;64371;47.566;19.086;2023-06-14T10:49:44;9.02;;;3.92;;
75758;SDS011;64371;47.566;19.086;2023-06-14T10:52:48;6.63;;;3.20;;
75758;SDS011;64371;47.566;19.086;2023-06-14T10:55:50;8.98;;;3.78;;
75758;SDS011;64371;47.566;19.086;2023-06-14T10:58:52;12.33;;;3.87;;
75758;SDS011;64371;47.566;19.086;2023-06-14T11:05:03;6.22;;;3.55;;
75758;SDS011;64371;47.566;19.086;2023-06-14T11:11:21;5.85;;;3.03;;
75758;SDS011;64371;47.566;19.086;2023-06-14T11:14:24;6.47;;;3.23;;
75758;SDS011;64371;47.566;19.086;2023-06-14T11:17:27;4.53;;;2.78;;
75758;SDS011;64371;47.566;19.086;2023-06-14T11:20:30;7.70;;;3.08;;
75758;SDS011;64371;47.566;19.086;2023-06-14T11:23:34;6.47;;;3.85;;
75758;SDS011;64371;47.566;19.086;2023-06-14T11:26:37;6.38;;;3.40;;
75758;SDS011;64371;47.566;19.086;2023-06-14T11:29:47;4.13;;;2.97;;
75758;SDS011;64371;47.566;19.086;2023-06-14T11:32:51;4.03;;;2.80;;
75758;SDS011;64371;47.566;19.086;2023-06-14T11:36:01;5.85;;;3.35;;
75758;SDS011;64371;47.566;19.086;2023-06-14T11:39:06;8.27;;;3.05;;
75758;SDS011;64371;47.566;19.086;2023-06-14T11:42:13;3.45;;;2.58;;
75758;SDS011;64371;47.566;19.086;2023-06-14T11:45:16;3.57;;;2.83;;
75758;SDS011;64371;47.566;19.086;2023-06-14T11:48:20;4.30;;;2.88;;
75758;SDS011;64371;47.566;19.086;2023-06-14T11:51:23;6.07;;;3.47;;
75758;SDS011;64371;47.566;19.086;2023-06-14T11:54:31;5.28;;;3.33;;
75758;SDS011;64371;47.566;19.086;2023-06-14T11:57:34;5.35;;;3.50;;
75758;SDS011;64371;47.566;19.086;2023-06-14T12:00:41;7.10;;;3.30;;
75758;SDS011;64371;47.566;19.086;2023-06-14T12:03:47;5.78;;;2.70;;
75758;SDS011;64371;47.566;19.086;2023-06-14T12:06:56;4.45;;;3.75;;
75758;SDS011;64371;47.566;19.086;2023-06-14T12:13:02;3.53;;;3.03;;
75758;SDS011;64371;47.566;19.086;2023-06-14T12:16:13;4.93;;;2.83;;
75758;SDS011;64371;47.566;19.086;2023-06-14T12:19:18;6.05;;;3.40;;
75758;SDS011;64371;47.566;19.086;2023-06-14T12:22:30;7.43;;;3.30;;
75758;SDS011;64371;47.566;19.086;2023-06-14T12:25:41;5.70;;;3.17;;
75758;SDS011;64371;47.566;19.086;2023-06-14T12:30:06;7.25;;;3.53;;
75758;SDS011;64371;47.566;19.086;2023-06-14T12:39:11;5.38;;;3.35;;
75758;SDS011;64371;47.566;19.086;2023-06-14T12:42:39;7.80;;;3.83;;
75758;SDS011;64371;47.566;19.086;2023-06-14T12:46:20;4.78;;;2.85;;
75758;SDS011;64371;47.566;19.086;2023-06-14T12:49:23;3.10;;;2.80;;
75758;SDS011;64371;47.566;19.086;2023-06-14T12:52:34;8.00;;;3.67;;
75758;SDS011;64371;47.566;19.086;2023-06-14T12:55:38;5.15;;;2.65;;
75758;SDS011;64371;47.566;19.086;2023-06-14T12:58:40;5.38;;;2.90;;
75758;SDS011;64371;47.566;19.086;2023-06-14T13:01:43;5.18;;;3.20;;
75758;SDS011;64371;47.566;19.086;2023-06-14T13:04:46;3.85;;;2.78;;
75758;SDS011;64371;47.566;19.086;2023-06-14T13:07:49;6.90;;;2.77;;
75758;SDS011;64371;47.566;19.086;2023-06-14T13:10:52;5.88;;;2.92;;
75758;SDS011;64371;47.566;19.086;2023-06-14T13:13:54;8.35;;;2.92;;
75758;SDS011;64371;47.566;19.086;2023-06-14T13:16:57;7.30;;;2.75;;
75758;SDS011;64371;47.566;19.086;2023-06-14T13:19:59;10.27;;;3.10;;
75758;SDS011;64371;47.566;19.086;2023-06-14T13:23:02;6.73;;;3.03;;
75758;SDS011;64371;47.566;19.086;2023-06-14T13:26:09;7.88;;;2.78;;
75758;SDS011;64371;47.566;19.086;2023-06-14T13:29:11;7.47;;;2.97;;
75758;SDS011;64371;47.566;19.086;2023-06-14T13:32:14;12.98;;;3.20;;
75758;SDS011;64371;47.566;19.086;2023-06-14T13:35:16;7.82;;;2.92;;
75758;SDS011;64371;47.566;19.086;2023-06-14T13:38:28;7.17;;;3.23;;
75758;SDS011;64371;47.566;19.086;2023-06-14T13:41:30;10.63;;;2.97;;
75758;SDS011;64371;47.566;19.086;2023-06-14T13:44:34;11.90;;;3.35;;
75758;SDS011;64371;47.566;19.086;2023-06-14T13:47:36;6.40;;;3.13;;
75758;SDS011;64371;47.566;19.086;2023-06-14T13:50:40;5.60;;;2.50;;
75758;SDS011;64371;47.566;19.086;2023-06-14T13:53:42;5.07;;;2.80;;
75758;SDS011;64371;47.566;19.086;2023-06-14T13:56:45;3.20;;;2.38;;
75758;SDS011;64371;47.566;19.086;2023-06-14T13:59:48;3.45;;;2.70;;
75758;SDS011;64371;47.566;19.086;2023-06-14T14:02:51;4.15;;;2.47;;
75758;SDS011;64371;47.566;19.086;2023-06-14T14:05:56;5.70;;;3.30;;
75758;SDS011;64371;47.566;19.086;2023-06-14T14:08:59;3.60;;;2.40;;
75758;SDS011;64371;47.566;19.086;2023-06-14T14:12:01;4.03;;;2.70;;
75758;SDS011;64371;47.566;19.086;2023-06-14T14:15:05;6.63;;;3.08;;
75758;SDS011;64371;47.566;19.086;2023-06-14T14:18:14;3.75;;;1.90;;
75758;SDS011;64371;47.566;19.086;2023-06-14T14:21:17;3.72;;;2.30;;
75758;SDS011;64371;47.566;19.086;2023-06-14T14:24:20;5.30;;;2.40;;
75758;SDS011;64371;47.566;19.086;2023-06-14T14:27:22;2.88;;;2.10;;
75758;SDS011;64371;47.566;19.086;2023-06-14T14:30:24;4.35;;;3.15;;
75758;SDS011;64371;47.566;19.086;2023-06-14T14:33:27;4.13;;;2.78;;
75758;SDS011;64371;47.566;19.086;2023-06-14T14:36:30;4.82;;;3.10;;
75758;SDS011;64371;47.566;19.086;2023-06-14T14:39:32;4.67;;;3.30;;
75758;SDS011;64371;47.566;19.086;2023-06-14T14:42:35;5.82;;;2.65;;
75758;SDS011;64371;47.566;19.086;2023-06-14T14:45:38;4.00;;;2.80;;
75758;SDS011;64371;47.566;19.086;2023-06-14T14:48:40;4.15;;;2.40;;
75758;SDS011;64371;47.566;19.086;2023-06-14T14:51:43;4.78;;;2.70;;
75758;SDS011;64371;47.566;19.086;2023-06-14T14:54:45;2.77;;;2.20;;
75758;SDS011;64371;47.566;19.086;2023-06-14T14:57:48;9.50;;;2.63;;
75758;SDS011;64371;47.566;19.086;2023-06-14T15:00:50;5.22;;;2.53;;
75758;SDS011;64371;47.566;19.086;2023-06-14T15:03:53;4.40;;;2.25;;
75758;SDS011;64371;47.566;19.086;2023-06-14T15:07:01;4.18;;;2.33;;
75758;SDS011;64371;47.566;19.086;2023-06-14T15:10:06;5.97;;;2.80;;
75758;SDS011;64371;47.566;19.086;2023-06-14T15:13:12;3.53;;;2.40;;
75758;SDS011;64371;47.566;19.086;2023-06-14T15:16:14;4.80;;;2.90;;
75758;SDS011;64371;47.566;19.086;2023-06-14T15:19:20;3.03;;;2.35;;
75758;SDS011;64371;47.566;19.086;2023-06-14T15:22:22;3.50;;;2.80;;
75758;SDS011;64371;47.566;19.086;2023-06-14T15:25:25;4.50;;;2.70;;
75758;SDS011;64371;47.566;19.086;2023-06-14T15:28:29;6.40;;;3.88;;
75758;SDS011;64371;47.566;19.086;2023-06-14T15:31:31;4.53;;;2.72;;
75758;SDS011;64371;47.566;19.086;2023-06-14T15:34:33;3.58;;;2.53;;
75758;SDS011;64371;47.566;19.086;2023-06-14T15:37:36;3.22;;;2.60;;
75758;SDS011;64371;47.566;19.086;2023-06-14T15:40:38;5.67;;;2.60;;
75758;SDS011;64371;47.566;19.086;2023-06-14T15:43:40;5.28;;;2.70;;
75758;SDS011;64371;47.566;19.086;2023-06-14T15:46:43;3.95;;;2.67;;
75758;SDS011;64371;47.566;19.086;2023-06-14T15:49:45;3.08;;;2.50;;
75758;SDS011;64371;47.566;19.086;2023-06-14T15:52:47;3.38;;;2.28;;
75758;SDS011;64371;47.566;19.086;2023-06-14T15:55:53;4.73;;;2.43;;
75758;SDS011;64371;47.566;19.086;2023-06-14T15:58:58;8.13;;;2.70;;
75758;SDS011;64371;47.566;19.086;2023-06-14T16:02:01;5.88;;;3.00;;
75758;SDS011;64371;47.566;19.086;2023-06-14T16:05:03;3.85;;;2.47;;
75758;SDS011;64371;47.566;19.086;2023-06-14T16:08:06;3.78;;;2.97;;
75758;SDS011;64371;47.566;19.086;2023-06-14T16:11:09;3.50;;;2.60;;
75758;SDS011;64371;47.566;19.086;2023-06-14T16:14:12;4.88;;;2.50;;
75758;SDS011;64371;47.566;19.086;2023-06-14T16:17:14;3.85;;;2.42;;
75758;SDS011;64371;47.566;19.086;2023-06-14T16:20:16;5.10;;;2.38;;
75758;SDS011;64371;47.566;19.086;2023-06-14T16:23:19;3.50;;;2.33;;
75758;SDS011;64371;47.566;19.086;2023-06-14T16:26:21;4.87;;;2.53;;
75758;SDS011;64371;47.566;19.086;2023-06-14T16:29:23;5.25;;;2.50;;
75758;SDS011;64371;47.566;19.086;2023-06-14T16:32:26;4.38;;;2.53;;
75758;SDS011;64371;47.566;19.086;2023-06-14T16:35:30;3.38;;;2.65;;
75758;SDS011;64371;47.566;19.086;2023-06-14T16:38:33;3.85;;;2.65;;
75758;SDS011;64371;47.566;19.086;2023-06-14T16:41:35;5.07;;;2.40;;
75758;SDS011;64371;47.566;19.086;2023-06-14T16:44:38;4.90;;;2.75;;
75758;SDS011;64371;47.566;19.086;2023-06-14T16:47:40;6.68;;;2.75;;
75758;SDS011;64371;47.566;19.086;2023-06-14T16:50:43;3.92;;;2.50;;
75758;SDS011;64371;47.566;19.086;2023-06-14T16:53:45;4.10;;;2.55;;
75758;SDS011;64371;47.566;19.086;2023-06-14T16:56:47;5.00;;;2.80;;
75758;SDS011;64371;47.566;19.086;2023-06-14T16:59:53;4.07;;;2.65;;
75758;SDS011;64371;47.566;19.086;2023-06-14T17:02:55;3.53;;;2.30;;
75758;SDS011;64371;47.566;19.086;2023-06-14T17:05:58;5.10;;;2.40;;
75758;SDS011;64371;47.566;19.086;2023-06-14T17:09:00;5.35;;;2.50;;
75758;SDS011;64371;47.566;19.086;2023-06-14T17:12:03;3.73;;;2.63;;
75758;SDS011;64371;47.566;19.086;2023-06-14T17:15:07;3.58;;;2.33;;
75758;SDS011;64371;47.566;19.086;2023-06-14T17:18:09;7.53;;;2.45;;
75758;SDS011;64371;47.566;19.086;2023-06-14T17:21:12;6.03;;;2.67;;
75758;SDS011;64371;47.566;19.086;2023-06-14T17:24:16;6.88;;;3.63;;
75758;SDS011;64371;47.566;19.086;2023-06-14T17:27:27;5.73;;;2.87;;
75758;SDS011;64371;47.566;19.086;2023-06-14T17:30:30;5.68;;;2.65;;
75758;SDS011;64371;47.566;19.086;2023-06-14T17:33:32;7.88;;;3.03;;
75758;SDS011;64371;47.566;19.086;2023-06-14T17:36:34;5.60;;;3.08;;
75758;SDS011;64371;47.566;19.086;2023-06-14T17:39:39;6.35;;;2.90;;
75758;SDS011;64371;47.566;19.086;2023-06-14T17:42:43;4.23;;;2.87;;
75758;SDS011;64371;47.566;19.086;2023-06-14T17:45:46;4.97;;;2.55;;
75758;SDS011;64371;47.566;19.086;2023-06-14T17:48:48;5.38;;;2.78;;
75758;SDS011;64371;47.566;19.086;2023-06-14T17:51:50;6.50;;;2.45;;
75758;SDS011;64371;47.566;19.086;2023-06-14T17:54:52;4.15;;;2.63;;
75758;SDS011;64371;47.566;19.086;2023-06-14T17:57:55;2.90;;;2.40;;
75758;SDS011;64371;47.566;19.086;2023-06-14T18:00:57;4.40;;;2.88;;
75758;SDS011;64371;47.566;19.086;2023-06-14T18:04:00;6.55;;;2.80;;
75758;SDS011;64371;47.566;19.086;2023-06-14T18:07:02;8.02;;;3.08;;
75758;SDS011;64371;47.566;19.086;2023-06-14T18:10:08;5.70;;;2.67;;
75758;SDS011;64371;47.566;19.086;2023-06-14T18:13:12;6.10;;;3.80;;
75758;SDS011;64371;47.566;19.086;2023-06-14T18:16:15;5.13;;;2.97;;
75758;SDS011;64371;47.566;19.086;2023-06-14T18:19:22;13.93;;;3.30;;
75758;SDS011;64371;47.566;19.086;2023-06-14T18:22:28;5.47;;;2.70;;
75758;SDS011;64371;47.566;19.086;2023-06-14T18:25:31;4.22;;;2.83;;
75758;SDS011;64371;47.566;19.086;2023-06-14T18:28:33;4.67;;;2.70;;
75758;SDS011;64371;47.566;19.086;2023-06-14T18:31:37;5.65;;;2.45;;